Time;durP1;ratioP1;P1;durP2;ratioP2;P2;SDS_P1;SDS_P2;PMS_P1;PMS_P2;Temp;Humidity;BMP_temperature;BMP_pressure;BME280_temperature;BME280_humidity;BME280_pressure;Samples;Min_cycle;Max_cycle;Signal;HPM_P1;HPM_P2
2022/01/05 00:02:01;;;;;;;;;;;6.30;94.40;;;;;;6100850;23;20342;-81
2022/01/05 00:04:28;;;;;;;;;;;6.30;94.40;;;;;;6099308;23;19921;-80
2022/01/05 00:06:57;;;;;;;;;;;6.20;94.50;;;;;;6100635;23;19921;-81
2022/01/05 00:09:24;;;;;;;;;;;6.20;94.60;;;;;;6099963;23;20385;-83
2022/01/05 00:11:50;;;;;;;;;;;6.20;94.60;;;;;;6100373;23;19921;-83
2022/01/05 00:14:17;;;;;;;;;;;6.20;94.60;;;;;;6100594;23;20254;-79
2022/01/05 00:16:44;;;;;;;;;;;6.10;94.90;;;;;;6099653;23;20382;-83
2022/01/05 00:19:11;;;;;;;;;;;6.10;94.80;;;;;;6100393;23;19921;-79
2022/01/05 00:21:40;;;;;;;;;;;6.10;94.80;;;;;;6099095;23;19921;-81
2022/01/05 00:24:07;;;;;;;;;;;6.10;94.80;;;;;;6100144;23;19925;-81
2022/01/05 00:26:34;;;;;;;;;;;6.20;94.80;;;;;;6099579;23;19968;-82
2022/01/05 00:29:02;;;;;;;;;;;6.20;94.70;;;;;;6100248;23;19921;-80
2022/01/05 00:31:29;;;;;;;;;;;6.20;94.70;;;;;;6099320;23;19929;-82
2022/01/05 00:33:56;;;;;;;;;;;6.20;94.70;;;;;;6100120;23;20361;-80
2022/01/05 00:36:23;;;;;;;;;;;6.20;94.70;;;;;;6099548;23;19925;-82
2022/01/05 00:38:50;;;;;;;;;;;6.20;94.60;;;;;;6125218;23;19933;-80
2022/01/05 00:41:17;;;;;;;;;;;6.20;95.00;;;;;;6125420;23;20262;-82
2022/01/05 00:43:44;;;;;;;;;;;6.20;94.60;;;;;;6099233;23;19925;-81
2022/01/05 00:46:11;;;;;;;;;;;6.30;94.70;;;;;;6100058;23;19968;-80
2022/01/05 00:48:38;;;;;;;;;;;6.20;94.60;;;;;;6099257;23;19920;-83
2022/01/05 00:51:06;;;;;;;;;;;6.30;94.70;;;;;;6099455;23;19925;-80
2022/01/05 00:53:33;;;;;;;;;;;6.30;94.60;;;;;;6099223;23;19929;-79
2022/01/05 00:56:00;;;;;;;;;;;6.30;94.60;;;;;;6100163;23;19925;-81
2022/01/05 00:58:27;;;;;;;;;;;6.30;94.60;;;;;;6099154;23;19921;-83
2022/01/05 01:00:54;;;;;;;;;;;6.30;94.50;;;;;;6100109;23;19929;-84
2022/01/05 01:03:21;;;;;;;;;;;6.30;94.60;;;;;;6125493;23;19921;-83
2022/01/05 01:05:48;;;;;;;;;;;6.30;94.50;;;;;;6098993;23;20298;-79
2022/01/05 01:08:14;;;;;;;;;;;6.30;94.70;;;;;;6099827;23;19980;-84
2022/01/05 01:10:41;;;;;;;;;;;6.30;94.50;;;;;;6124716;23;19921;-84
2022/01/05 01:13:08;;;;;;;;;;;6.30;94.50;;;;;;6099699;23;19944;-80
2022/01/05 01:15:35;;;;;;;;;;;6.30;94.60;;;;;;6099407;23;19921;-84
2022/01/05 01:18:02;;;;;;;;;;;6.30;94.90;;;;;;6124854;23;19972;-83
2022/01/05 01:20:29;;;;;;;;;;;6.30;94.90;;;;;;6099727;23;19925;-80
2022/01/05 01:22:56;;;;;;;;;;;6.30;94.90;;;;;;6099695;23;20405;-83
2022/01/05 01:25:23;;;;;;;;;;;6.30;94.80;;;;;;6099980;23;19921;-80
2022/01/05 01:27:49;;;;;;;;;;;6.30;94.90;;;;;;6099103;23;19991;-80
2022/01/05 01:30:16;;;;;;;;;;;6.30;94.90;;;;;;6099874;23;20405;-80
2022/01/05 01:32:43;;;;;;;;;;;6.30;94.80;;;;;;6098878;23;19950;-80
2022/01/05 01:35:10;;;;;;;;;;;6.30;94.80;;;;;;6099852;23;19926;-80
2022/01/05 01:37:37;;;;;;;;;;;6.30;94.70;;;;;;6099362;23;20351;-80
2022/01/05 01:40:05;;;;;;;;;;;6.30;94.70;;;;;;6099721;23;19929;-81
2022/01/05 01:42:32;;;;;;;;;;;6.30;94.70;;;;;;6099217;23;19925;-81
2022/01/05 01:44:59;;;;;;;;;;;6.30;94.70;;;;;;6099556;23;20343;-84
2022/01/05 01:47:26;;;;;;;;;;;6.30;94.70;;;;;;6099410;23;19928;-81
2022/01/05 01:49:53;;;;;;;;;;;6.30;94.80;;;;;;6099449;23;20373;-80
2022/01/05 01:52:20;;;;;;;;;;;6.30;94.80;;;;;;6099610;23;19975;-80
2022/01/05 01:54:47;;;;;;;;;;;6.20;94.70;;;;;;6099215;23;19928;-80
2022/01/05 01:57:14;;;;;;;;;;;6.30;94.70;;;;;;6099986;23;19925;-82
2022/01/05 01:59:45;;;;;;;;;;;6.20;94.70;;;;;;6099697;23;19944;-80
2022/01/05 02:02:12;;;;;;;;;;;6.30;94.70;;;;;;6099848;23;19928;-80
2022/01/05 02:04:41;;;;;;;;;;;6.20;94.80;;;;;;6099114;23;19921;-80
2022/01/05 02:07:08;;;;;;;;;;;6.20;94.70;;;;;;6099974;23;19948;-80
2022/01/05 02:09:35;;;;;;;;;;;6.20;94.80;;;;;;6098886;23;20022;-78
2022/01/05 02:12:06;;;;;;;;;;;6.20;94.80;;;;;;6099955;23;19925;-80
2022/01/05 02:14:33;;;;;;;;;;;6.20;94.80;;;;;;6098571;23;19932;-80
2022/01/05 02:17:09;;;;;;;;;;;6.20;94.80;;;;;;6099718;23;19921;-81
2022/01/05 02:19:36;;;;;;;;;;;6.20;94.80;;;;;;6099744;23;19976;-82
2022/01/05 02:22:03;;;;;;;;;;;6.20;94.90;;;;;;6101499;23;19924;-81
2022/01/05 02:24:30;;;;;;;;;;;6.20;94.90;;;;;;6100266;23;19925;-81
2022/01/05 02:26:57;;;;;;;;;;;6.30;94.90;;;;;;6101614;23;19924;-83
2022/01/05 02:29:24;;;;;;;;;;;6.20;94.90;;;;;;6100850;23;19925;-82
2022/01/05 02:31:51;;;;;;;;;;;6.20;94.90;;;;;;6100030;23;20377;-80
2022/01/05 02:34:18;;;;;;;;;;;6.20;94.90;;;;;;6100121;23;20354;-80
2022/01/05 02:36:45;;;;;;;;;;;6.20;94.90;;;;;;6100439;23;20038;-81
2022/01/05 02:39:12;;;;;;;;;;;6.20;94.90;;;;;;6101139;23;19972;-79
2022/01/05 02:41:38;;;;;;;;;;;6.30;94.90;;;;;;6100244;23;19921;-79
2022/01/05 02:44:05;;;;;;;;;;;6.20;94.90;;;;;;6101418;23;19925;-82
2022/01/05 02:46:32;;;;;;;;;;;6.30;95.00;;;;;;6100407;23;19921;-80
2022/01/05 02:49:02;;;;;;;;;;;6.30;95.00;;;;;;6100870;23;19921;-79
2022/01/05 02:51:29;;;;;;;;;;;6.20;95.00;;;;;;6100888;23;20012;-82
2022/01/05 02:53:56;;;;;;;;;;;6.20;95.00;;;;;;6126216;23;20401;-82
2022/01/05 02:56:23;;;;;;;;;;;6.20;95.00;;;;;;6101233;23;19921;-81
2022/01/05 02:58:50;;;;;;;;;;;6.20;95.10;;;;;;6100372;23;19962;-81
2022/01/05 03:01:17;;;;;;;;;;;6.10;95.20;;;;;;6101279;23;19996;-82
2022/01/05 03:03:44;;;;;;;;;;;6.10;95.40;;;;;;6100270;23;19932;-79
2022/01/05 03:06:11;;;;;;;;;;;6.10;95.40;;;;;;6100276;23;20338;-80
2022/01/05 03:08:37;;;;;;;;;;;6.10;95.40;;;;;;6100155;23;19921;-83
2022/01/05 03:11:04;;;;;;;;;;;6.10;95.50;;;;;;6101025;23;19931;-81
2022/01/05 03:13:31;;;;;;;;;;;6.10;95.50;;;;;;6100081;23;19921;-83
2022/01/05 03:15:58;;;;;;;;;;;6.10;95.50;;;;;;6100658;23;19921;-82
2022/01/05 03:18:25;;;;;;;;;;;6.10;95.40;;;;;;6126297;23;19931;-80
2022/01/05 03:20:52;;;;;;;;;;;6.10;95.40;;;;;;6099952;23;19928;-82
2022/01/05 03:23:19;;;;;;;;;;;6.10;95.40;;;;;;6101146;23;19921;-81
2022/01/05 03:25:46;;;;;;;;;;;6.10;95.40;;;;;;6099710;23;19925;-80
2022/01/05 03:28:13;;;;;;;;;;;6.10;95.30;;;;;;6100902;23;20008;-81
2022/01/05 03:30:40;;;;;;;;;;;6.20;95.30;;;;;;6099801;23;19921;-82
2022/01/05 03:33:12;;;;;;;;;;;6.20;95.30;;;;;;6100868;23;20327;-80
2022/01/05 03:35:40;;;;;;;;;;;6.20;95.30;;;;;;6100026;23;19921;-81
2022/01/05 03:38:08;;;;;;;;;;;6.20;95.20;;;;;;6100520;23;19920;-81
2022/01/05 03:40:35;;;;;;;;;;;6.20;95.20;;;;;;6100862;23;20417;-81
2022/01/05 03:43:02;;;;;;;;;;;6.20;95.20;;;;;;6101236;23;19925;-81
2022/01/05 03:45:29;;;;;;;;;;;6.20;95.20;;;;;;6101095;23;20263;-83
2022/01/05 03:47:56;;;;;;;;;;;6.20;95.20;;;;;;6098830;23;20330;-80
2022/01/05 03:50:24;;;;;;;;;;;6.20;95.40;;;;;;6071968;23;20119;-81
2022/01/05 03:52:50;;;;;;;;;;;6.20;95.30;;;;;;6070788;23;19928;-81
2022/01/05 03:55:17;;;;;;;;;;;6.20;95.30;;;;;;6096791;23;19981;-81
2022/01/05 03:57:44;;;;;;;;;;;6.20;95.20;;;;;;6070863;23;19932;-81
2022/01/05 04:00:11;;;;;;;;;;;6.20;95.20;;;;;;6071980;23;19953;-81
2022/01/05 04:02:38;;;;;;;;;;;6.20;95.20;;;;;;6070797;23;19969;-81
2022/01/05 04:05:05;;;;;;;;;;;6.20;95.20;;;;;;6071529;23;19949;-80
2022/01/05 04:07:32;;;;;;;;;;;6.20;95.20;;;;;;6072039;23;19921;-80
2022/01/05 04:09:59;;;;;;;;;;;6.30;95.20;;;;;;6071338;23;19925;-80
2022/01/05 04:12:26;;;;;;;;;;;6.30;95.20;;;;;;6071789;23;19921;-80
2022/01/05 04:14:53;;;;;;;;;;;6.40;95.20;;;;;;6072166;23;19921;-80
2022/01/05 04:17:21;;;;;;;;;;;6.40;95.20;;;;;;6071776;23;20410;-81
2022/01/05 04:19:51;;;;;;;;;;;6.50;95.10;;;;;;6070893;23;19922;-83
2022/01/05 04:22:18;;;;;;;;;;;6.40;95.10;;;;;;6071702;23;19921;-81
2022/01/05 04:24:44;;;;;;;;;;;6.40;95.10;;;;;;6070927;23;19981;-80
2022/01/05 04:27:11;;;;;;;;;;;6.40;95.20;;;;;;6071186;23;20339;-80
2022/01/05 04:29:38;;;;;;;;;;;6.30;95.30;;;;;;6070605;23;19921;-80
2022/01/05 04:32:07;;;;;;;;;;;6.30;95.50;;;;;;6071594;23;20016;-80
2022/01/05 04:34:34;;;;;;;;;;;6.20;95.50;;;;;;6071714;23;20581;-81
2022/01/05 04:37:22;;;;;;;;;;;6.20;95.60;;;;;;6074541;23;19980;-80
2022/01/05 04:39:49;;;;;;;;;;;6.20;95.70;;;;;;6070936;23;19972;-80
2022/01/05 04:42:16;;;;;;;;;;;6.20;95.70;;;;;;6070019;23;19922;-84
2022/01/05 04:44:43;;;;;;;;;;;6.20;95.70;;;;;;6071250;23;19921;-80
2022/01/05 04:47:12;;;;;;;;;;;6.20;95.70;;;;;;6070849;23;19925;-80
2022/01/05 04:49:39;;;;;;;;;;;6.20;95.80;;;;;;6092977;23;19921;-81
2022/01/05 04:52:06;;;;;;;;;;;6.30;95.80;;;;;;6099275;23;19979;-80
2022/01/05 04:54:33;;;;;;;;;;;6.20;95.80;;;;;;6099897;23;19928;-78
2022/01/05 04:57:00;;;;;;;;;;;6.20;95.80;;;;;;6099341;23;20373;-79
2022/01/05 04:59:27;;;;;;;;;;;6.20;95.80;;;;;;6099989;23;19921;-81
2022/01/05 05:01:54;;;;;;;;;;;6.20;95.80;;;;;;6099927;23;20365;-78
2022/01/05 05:04:21;;;;;;;;;;;6.30;95.90;;;;;;6099403;23;19921;-80
2022/01/05 05:06:49;;;;;;;;;;;6.30;95.90;;;;;;6099813;23;19947;-77
2022/01/05 05:09:17;;;;;;;;;;;6.30;95.90;;;;;;6098884;23;19925;-77
2022/01/05 05:11:43;;;;;;;;;;;6.30;95.90;;;;;;6100434;23;19925;-80
2022/01/05 05:14:10;;;;;;;;;;;6.30;95.90;;;;;;6099078;23;19976;-78
2022/01/05 05:16:37;;;;;;;;;;;6.40;96.00;;;;;;6100069;23;20347;-78
2022/01/05 05:19:04;;;;;;;;;;;6.40;95.90;;;;;;6099029;23;19928;-80
2022/01/05 05:21:31;;;;;;;;;;;6.40;95.90;;;;;;6100496;23;20257;-79
2022/01/05 05:23:57;;;;;;;;;;;6.40;95.90;;;;;;6099757;23;20282;-77
2022/01/05 05:26:25;;;;;;;;;;;6.40;95.90;;;;;;6098921;23;19925;-78
2022/01/05 05:28:51;;;;;;;;;;;6.40;95.80;;;;;;6099787;23;19924;-78
2022/01/05 05:31:18;;;;;;;;;;;6.40;95.80;;;;;;6099298;23;19921;-79
2022/01/05 05:33:45;;;;;;;;;;;6.40;95.90;;;;;;6099885;23;19924;-78
2022/01/05 05:36:12;;;;;;;;;;;6.50;95.80;;;;;;6099088;23;20357;-78
2022/01/05 05:38:39;;;;;;;;;;;6.50;95.90;;;;;;6099773;23;19928;-79
2022/01/05 05:41:05;;;;;;;;;;;6.40;95.80;;;;;;6099233;23;19929;-78
2022/01/05 05:43:32;;;;;;;;;;;6.40;95.80;;;;;;6099804;23;19972;-79
2022/01/05 05:45:59;;;;;;;;;;;6.40;95.80;;;;;;6099551;23;20253;-78
2022/01/05 05:48:26;;;;;;;;;;;6.40;95.80;;;;;;6094947;23;19921;-80
2022/01/05 05:50:54;;;;;;;;;;;6.40;95.80;;;;;;6070951;23;19928;-79
2022/01/05 05:53:22;;;;;;;;;;;6.30;95.80;;;;;;6071356;23;19922;-79
2022/01/05 05:55:49;;;;;;;;;;;6.30;95.80;;;;;;6073553;23;20426;-78
2022/01/05 05:58:16;;;;;;;;;;;6.30;95.80;;;;;;6072096;23;19951;-77
2022/01/05 06:00:43;;;;;;;;;;;6.30;95.80;;;;;;6072868;23;20266;-77
2022/01/05 06:03:10;;;;;;;;;;;6.30;95.80;;;;;;6071819;23;19933;-78
2022/01/05 06:05:37;;;;;;;;;;;6.30;95.90;;;;;;6072346;23;19954;-80
2022/01/05 06:08:04;;;;;;;;;;;6.30;95.90;;;;;;6071428;23;19925;-79
2022/01/05 06:10:31;;;;;;;;;;;6.30;95.90;;;;;;6072121;23;19922;-81
2022/01/05 06:12:57;;;;;;;;;;;6.30;95.90;;;;;;6072566;23;19921;-78
2022/01/05 06:15:24;;;;;;;;;;;6.30;95.90;;;;;;6071514;23;19961;-81
2022/01/05 06:17:51;;;;;;;;;;;6.30;95.90;;;;;;6097592;23;19928;-77
2022/01/05 06:20:18;;;;;;;;;;;6.30;95.90;;;;;;6071426;23;19922;-77
2022/01/05 06:22:45;;;;;;;;;;;6.30;95.90;;;;;;6072133;23;20346;-80
2022/01/05 06:25:11;;;;;;;;;;;6.30;95.90;;;;;;6071422;23;19921;-77
2022/01/05 06:27:38;;;;;;;;;;;6.30;95.90;;;;;;6072000;23;19925;-77
2022/01/05 06:30:07;;;;;;;;;;;6.30;95.90;;;;;;6070796;23;19925;-77
2022/01/05 06:32:35;;;;;;;;;;;6.30;95.90;;;;;;6071705;23;19926;-77
2022/01/05 06:35:02;;;;;;;;;;;6.30;95.90;;;;;;6071442;23;19929;-77
2022/01/05 06:37:29;;;;;;;;;;;6.40;95.90;;;;;;6071593;23;19929;-81
2022/01/05 06:39:56;;;;;;;;;;;6.40;95.90;;;;;;6071813;23;19972;-78
2022/01/05 06:42:23;;;;;;;;;;;6.40;95.90;;;;;;6071448;23;19947;-77
2022/01/05 06:44:50;;;;;;;;;;;6.40;95.90;;;;;;6072470;23;19976;-78
2022/01/05 06:47:16;;;;;;;;;;;6.30;95.80;;;;;;6095775;23;19929;-77
2022/01/05 06:49:43;;;;;;;;;;;6.30;95.80;;;;;;6091424;23;20394;-78
2022/01/05 06:52:11;;;;;;;;;;;6.40;95.80;;;;;;6125363;23;19991;-77
2022/01/05 06:54:39;;;;;;;;;;;6.40;95.80;;;;;;6100848;23;20389;-77
2022/01/05 06:57:06;;;;;;;;;;;6.30;95.80;;;;;;6125704;23;19924;-80
2022/01/05 06:59:34;;;;;;;;;;;6.30;95.80;;;;;;6100663;23;19929;-78
2022/01/05 07:02:01;;;;;;;;;;;6.30;95.70;;;;;;6101046;23;19921;-80
2022/01/05 07:04:28;;;;;;;;;;;6.30;95.70;;;;;;6099782;23;19928;-80
2022/01/05 07:06:55;;;;;;;;;;;6.30;95.80;;;;;;6100538;23;20409;-80
2022/01/05 07:09:21;;;;;;;;;;;6.30;95.80;;;;;;6099842;23;19988;-80
2022/01/05 07:11:48;;;;;;;;;;;6.30;95.70;;;;;;6100524;23;19972;-79
2022/01/05 07:14:15;;;;;;;;;;;6.30;95.70;;;;;;6099896;23;19929;-80
2022/01/05 07:16:42;;;;;;;;;;;6.30;95.80;;;;;;6100704;23;20302;-79
2022/01/05 07:19:09;;;;;;;;;;;6.30;95.80;;;;;;6099947;23;20342;-79
2022/01/05 07:21:36;;;;;;;;;;;6.20;95.70;;;;;;6099903;23;19921;-80
2022/01/05 07:24:03;;;;;;;;;;;6.30;95.70;;;;;;6100061;23;19925;-77
2022/01/05 07:26:31;;;;;;;;;;;6.30;95.80;;;;;;6124985;23;19925;-77
2022/01/05 07:28:58;;;;;;;;;;;6.30;95.70;;;;;;6100464;23;19924;-77
2022/01/05 07:31:25;;;;;;;;;;;6.30;95.70;;;;;;6100007;23;19936;-77
2022/01/05 07:33:52;;;;;;;;;;;6.30;95.70;;;;;;6100899;23;20000;-77
2022/01/05 07:36:19;;;;;;;;;;;6.30;96.10;;;;;;6099284;23;19921;-77
2022/01/05 07:38:46;;;;;;;;;;;6.30;95.70;;;;;;6100952;23;19948;-79
2022/01/05 07:41:12;;;;;;;;;;;6.30;95.90;;;;;;6099371;23;19928;-79
2022/01/05 07:43:39;;;;;;;;;;;6.30;95.80;;;;;;6126206;23;19921;-78
2022/01/05 07:46:06;;;;;;;;;;;6.30;95.80;;;;;;6099951;23;20345;-78
2022/01/05 07:48:35;;;;;;;;;;;6.30;95.80;;;;;;6097129;23;19947;-78
2022/01/05 07:51:02;;;;;;;;;;;6.30;95.70;;;;;;6071414;23;19921;-79
2022/01/05 07:53:28;;;;;;;;;;;6.20;95.70;;;;;;6070708;23;19997;-78
2022/01/05 07:55:55;;;;;;;;;;;6.20;95.70;;;;;;6071570;23;20298;-79
2022/01/05 07:58:23;;;;;;;;;;;6.20;95.70;;;;;;6070390;23;20339;-80
2022/01/05 08:00:50;;;;;;;;;;;6.20;95.70;;;;;;6071370;23;19928;-80
2022/01/05 08:03:17;;;;;;;;;;;6.30;95.80;;;;;;6070531;23;19960;-78
2022/01/05 08:06:04;;;;;;;;;;;6.30;95.80;;;;;;6075488;23;20401;-77
2022/01/05 08:08:31;;;;;;;;;;;6.30;95.90;;;;;;6070656;23;19929;-78
2022/01/05 08:10:58;;;;;;;;;;;6.30;96.30;;;;;;6071348;23;20023;-78
2022/01/05 08:13:25;;;;;;;;;;;6.30;95.90;;;;;;6070425;23;19925;-78
2022/01/05 08:15:52;;;;;;;;;;;6.40;95.90;;;;;;6096421;23;19921;-77
2022/01/05 08:18:20;;;;;;;;;;;6.40;95.90;;;;;;6070224;23;19928;-80
2022/01/05 08:20:47;;;;;;;;;;;6.30;95.80;;;;;;6071240;23;20263;-78
2022/01/05 08:23:17;;;;;;;;;;;6.30;95.80;;;;;;6095329;23;19922;-77
2022/01/05 08:25:44;;;;;;;;;;;6.30;95.80;;;;;;6095788;23;19921;-77
2022/01/05 08:28:11;;;;;;;;;;;6.30;95.80;;;;;;6070352;23;19925;-78
2022/01/05 08:30:39;;;;;;;;;;;6.30;96.00;;;;;;6070943;23;19944;-77
2022/01/05 08:33:06;;;;;;;;;;;6.30;96.00;;;;;;6070972;23;19925;-79
2022/01/05 08:35:34;;;;;;;;;;;6.40;96.00;;;;;;6070409;23;19922;-77
2022/01/05 08:38:01;;;;;;;;;;;6.30;96.10;;;;;;6070951;23;19925;-77
2022/01/05 08:40:28;;;;;;;;;;;6.30;96.10;;;;;;6070123;23;19922;-79
2022/01/05 08:42:55;;;;;;;;;;;6.30;96.10;;;;;;6071345;23;20291;-78
2022/01/05 08:45:22;;;;;;;;;;;6.40;96.10;;;;;;6095344;23;19921;-77
2022/01/05 08:47:50;;;;;;;;;;;6.40;96.10;;;;;;6070440;23;19988;-80
2022/01/05 08:50:18;;;;;;;;;;;6.40;96.20;;;;;;6075754;23;19922;-80
2022/01/05 08:52:45;;;;;;;;;;;6.40;96.10;;;;;;6094523;23;19926;-79
2022/01/05 08:55:13;;;;;;;;;;;6.40;96.10;;;;;;6094070;23;20948;-80
2022/01/05 08:57:40;;;;;;;;;;;6.40;96.10;;;;;;6094479;23;19925;-80
2022/01/05 09:00:08;;;;;;;;;;;6.40;96.00;;;;;;6094049;23;19929;-80
2022/01/05 09:02:35;;;;;;;;;;;6.50;96.10;;;;;;6094520;23;20390;-79
2022/01/05 09:05:03;;;;;;;;;;;6.50;96.00;;;;;;6093849;23;19927;-80
2022/01/05 09:07:30;;;;;;;;;;;6.60;96.00;;;;;;6094644;23;19933;-77
2022/01/05 09:09:57;;;;;;;;;;;6.60;96.10;;;;;;6093715;23;19925;-80
2022/01/05 09:12:24;;;;;;;;;;;6.60;96.10;;;;;;6094650;23;19927;-77
2022/01/05 09:14:50;;;;;;;;;;;6.60;96.00;;;;;;6094575;23;19925;-78
2022/01/05 09:17:21;;;;;;;;;;;6.70;96.00;;;;;;6082612;23;19922;-77
2022/01/05 09:19:48;;;;;;;;;;;6.70;95.90;;;;;;6094633;23;20008;-77
2022/01/05 09:22:15;;;;;;;;;;;6.70;95.90;;;;;;6093361;23;20306;-78
2022/01/05 09:24:48;;;;;;;;;;;6.80;95.90;;;;;;6096223;23;19925;-77
2022/01/05 09:27:16;;;;;;;;;;;6.80;95.80;;;;;;6093290;23;19925;-78
2022/01/05 09:29:43;;;;;;;;;;;6.80;95.70;;;;;;6096577;23;19928;-77
2022/01/05 09:32:10;;;;;;;;;;;6.90;95.70;;;;;;6095724;23;19936;-80
2022/01/05 09:34:38;;;;;;;;;;;6.90;95.50;;;;;;6096414;23;19929;-79
2022/01/05 09:42:23;;;;;;;;;;;7.00;95.50;;;;;;6096962;23;20709;-77
2022/01/05 09:44:51;;;;;;;;;;;7.00;95.50;;;;;;6096897;23;20359;-79
2022/01/05 09:47:19;;;;;;;;;;;7.00;95.30;;;;;;6095083;23;19925;-77
2022/01/05 09:49:57;;;;;;;;;;;7.00;95.10;;;;;;6096172;23;19932;-77
2022/01/05 09:52:24;;;;;;;;;;;7.00;95.10;;;;;;6095784;23;19925;-78
2022/01/05 09:54:52;;;;;;;;;;;7.00;95.20;;;;;;6096382;23;19921;-79
2022/01/05 09:57:21;;;;;;;;;;;7.00;95.20;;;;;;6095700;23;19935;-78
2022/01/05 09:59:48;;;;;;;;;;;7.00;95.10;;;;;;6096060;23;19921;-78
2022/01/05 10:02:16;;;;;;;;;;;7.00;95.10;;;;;;6095592;23;19972;-79
2022/01/05 10:04:43;;;;;;;;;;;7.00;95.60;;;;;;6096248;23;19921;-77
2022/01/05 10:07:11;;;;;;;;;;;7.10;95.10;;;;;;6094969;23;19925;-80
2022/01/05 10:09:42;;;;;;;;;;;7.10;95.10;;;;;;6096259;23;19921;-77
2022/01/05 10:12:10;;;;;;;;;;;7.10;95.00;;;;;;6094533;23;19976;-79
2022/01/05 10:14:40;;;;;;;;;;;7.10;94.90;;;;;;6096149;23;20370;-80
2022/01/05 10:17:09;;;;;;;;;;;7.10;94.80;;;;;;6094691;23;19921;-80
2022/01/05 10:19:36;;;;;;;;;;;7.20;94.80;;;;;;6096509;23;20338;-80
2022/01/05 10:22:04;;;;;;;;;;;7.20;94.60;;;;;;6094660;23;20254;-78
2022/01/05 10:24:42;;;;;;;;;;;7.20;94.50;;;;;;6096540;23;19973;-80
2022/01/05 10:27:20;;;;;;;;;;;7.20;94.50;;;;;;6094743;23;19925;-80
2022/01/05 10:29:50;;;;;;;;;;;7.30;94.40;;;;;;6095725;23;20372;-77
2022/01/05 10:32:18;;;;;;;;;;;7.30;94.20;;;;;;6094696;23;20243;-79
2022/01/05 10:34:57;;;;;;;;;;;7.40;94.00;;;;;;6095668;23;19921;-78
2022/01/05 10:37:24;;;;;;;;;;;7.50;94.10;;;;;;6094373;23;19925;-79
2022/01/05 10:40:03;;;;;;;;;;;7.50;93.70;;;;;;6095417;23;20335;-79
2022/01/05 10:42:32;;;;;;;;;;;7.50;93.70;;;;;;6083630;23;20558;-77
2022/01/05 10:44:59;;;;;;;;;;;7.50;93.80;;;;;;6097416;23;20287;-77
2022/01/05 10:47:26;;;;;;;;;;;7.50;93.40;;;;;;6071124;23;19929;-77
2022/01/05 10:49:54;;;;;;;;;;;7.60;93.50;;;;;;6096654;23;19921;-77
2022/01/05 10:52:21;;;;;;;;;;;7.60;93.60;;;;;;6096308;23;19921;-79
2022/01/05 10:54:48;;;;;;;;;;;7.70;93.70;;;;;;6095856;23;20342;-78
2022/01/05 10:57:16;;;;;;;;;;;7.70;93.40;;;;;;6094929;23;19953;-79
2022/01/05 10:59:44;;;;;;;;;;;7.70;93.10;;;;;;6095746;23;19925;-80
2022/01/05 11:02:22;;;;;;;;;;;7.70;92.70;;;;;;6092353;23;20303;-80
2022/01/05 11:04:49;;;;;;;;;;;7.70;92.70;;;;;;6095374;23;19921;-79
2022/01/05 11:07:24;;;;;;;;;;;7.70;93.00;;;;;;6095107;23;19979;-81
2022/01/05 11:09:56;;;;;;;;;;;7.70;92.90;;;;;;6087165;23;19928;-77
2022/01/05 11:12:38;;;;;;;;;;;7.70;92.90;;;;;;6094737;23;19925;-78
2022/01/05 11:15:24;;;;;;;;;;;7.70;93.10;;;;;;6095781;23;19925;-77
2022/01/05 11:18:09;;;;;;;;;;;7.70;92.80;;;;;;6096648;23;19921;-81
2022/01/05 11:20:37;;;;;;;;;;;7.80;92.70;;;;;;6095075;23;19921;-79
2022/01/05 11:23:05;;;;;;;;;;;7.90;92.70;;;;;;6097183;23;19922;-81
2022/01/05 11:25:34;;;;;;;;;;;7.90;92.60;;;;;;6094646;23;20410;-78
2022/01/05 11:28:02;;;;;;;;;;;7.90;92.40;;;;;;6095588;23;19928;-78
2022/01/05 11:30:29;;;;;;;;;;;7.90;92.40;;;;;;6094874;23;19950;-78
2022/01/05 11:32:56;;;;;;;;;;;7.90;92.50;;;;;;6096578;23;19921;-78
2022/01/05 11:35:23;;;;;;;;;;;7.90;92.70;;;;;;6095251;23;19925;-80
2022/01/05 11:37:50;;;;;;;;;;;8.00;92.60;;;;;;6094796;23;19933;-82
2022/01/05 11:40:17;;;;;;;;;;;8.00;92.70;;;;;;6094772;23;20406;-81
2022/01/05 11:42:48;;;;;;;;;;;8.00;92.40;;;;;;6095177;23;19969;-78
2022/01/05 11:45:45;;;;;;;;;;;8.10;92.40;;;;;;6095528;23;20350;-79
2022/01/05 11:48:14;;;;;;;;;;;8.20;92.10;;;;;;6094230;23;19928;-81
2022/01/05 11:50:49;;;;;;;;;;;8.30;91.70;;;;;;6095732;23;19927;-80
2022/01/05 11:53:30;;;;;;;;;;;8.30;91.80;;;;;;6077887;23;19925;-79
2022/01/05 11:55:58;;;;;;;;;;;8.40;91.80;;;;;;6095500;23;19925;-82
2022/01/05 11:58:26;;;;;;;;;;;8.40;91.60;;;;;;6095461;23;19925;-81
2022/01/05 12:01:12;;;;;;;;;;;8.40;90.90;;;;;;6096056;23;19922;-82
2022/01/05 12:03:52;;;;;;;;;;;8.50;91.20;;;;;;6095634;23;20755;-83
2022/01/05 12:06:19;;;;;;;;;;;8.50;90.60;;;;;;6094664;23;19929;-79
2022/01/05 12:09:09;;;;;;;;;;;8.60;90.20;;;;;;6095566;23;19996;-77
2022/01/05 12:11:41;;;;;;;;;;;8.60;90.80;;;;;;6094886;23;22570;-80
2022/01/05 12:14:21;;;;;;;;;;;8.70;90.60;;;;;;6095104;23;19922;-81
2022/01/05 12:17:03;;;;;;;;;;;8.60;90.50;;;;;;6082297;23;20767;-79
2022/01/05 12:19:34;;;;;;;;;;;8.70;90.30;;;;;;6079015;23;19933;-78
2022/01/05 12:22:08;;;;;;;;;;;8.60;90.20;;;;;;6095344;23;19956;-81
2022/01/05 12:24:57;;;;;;;;;;;8.50;90.40;;;;;;6095110;23;19925;-78
2022/01/05 12:27:25;;;;;;;;;;;8.60;90.50;;;;;;6095636;23;20228;-78
2022/01/05 12:29:54;;;;;;;;;;;8.80;90.70;;;;;;6095416;23;20338;-80
2022/01/05 12:32:31;;;;;;;;;;;8.90;90.40;;;;;;6082452;23;20000;-80
2022/01/05 12:35:02;;;;;;;;;;;8.90;90.10;;;;;;6094506;23;20394;-80
2022/01/05 12:37:49;;;;;;;;;;;8.80;89.90;;;;;;6096178;23;19928;-79
2022/01/05 12:40:49;;;;;;;;;;;8.90;89.90;;;;;;6093674;23;19925;-82
2022/01/05 12:43:33;;;;;;;;;;;8.90;90.30;;;;;;6022855;23;19928;-80
2022/01/05 12:46:11;;;;;;;;;;;9.20;90.30;;;;;;6094167;23;20000;-81
2022/01/05 12:48:43;;;;;;;;;;;9.30;87.50;;;;;;6094609;23;19925;-82
2022/01/05 12:51:20;;;;;;;;;;;9.30;87.70;;;;;;6094081;23;20236;-83
2022/01/05 12:53:50;;;;;;;;;;;9.30;88.00;;;;;;6095083;23;19925;-81
2022/01/05 12:56:24;;;;;;;;;;;9.40;88.00;;;;;;6089929;23;19941;-81
2022/01/05 12:58:52;;;;;;;;;;;9.50;86.90;;;;;;6094336;23;19921;-79
2022/01/05 13:01:19;;;;;;;;;;;9.50;85.90;;;;;;6069983;23;19929;-79
2022/01/05 13:03:46;;;;;;;;;;;9.50;87.70;;;;;;6094724;23;20362;-79
2022/01/05 13:06:18;;;;;;;;;;;9.40;86.70;;;;;;6094063;23;20307;-82
2022/01/05 13:08:48;;;;;;;;;;;9.40;87.30;;;;;;6075846;23;20290;-78
2022/01/05 13:11:38;;;;;;;;;;;9.40;86.50;;;;;;6094028;23;19953;-80
2022/01/05 13:14:18;;;;;;;;;;;9.30;87.50;;;;;;6092326;23;19925;-81
2022/01/05 13:16:46;;;;;;;;;;;9.10;88.30;;;;;;6094138;23;19933;-80
2022/01/05 13:19:32;;;;;;;;;;;9.20;87.60;;;;;;6093631;23;20335;-78
2022/01/05 13:22:00;;;;;;;;;;;9.50;86.60;;;;;;6095833;23;19949;-79
2022/01/05 13:24:53;;;;;;;;;;;9.70;83.40;;;;;;6023603;23;266223;-81
2022/01/05 13:27:25;;;;;;;;;;;9.80;77.40;;;;;;6031234;23;19979;-81
2022/01/05 13:29:54;;;;;;;;;;;9.90;81.70;;;;;;6037207;23;19922;-82
2022/01/05 13:32:22;;;;;;;;;;;9.90;83.10;;;;;;6036021;23;19970;-81
2022/01/05 13:35:00;;;;;;;;;;;10.00;82.00;;;;;;6037370;23;20301;-78
2022/01/05 13:37:29;;;;;;;;;;;10.00;81.10;;;;;;6035958;23;19986;-81
2022/01/05 13:39:57;;;;;;;;;;;10.00;80.20;;;;;;6036765;23;20335;-81
2022/01/05 13:42:32;;;;;;;;;;;10.20;74.80;;;;;;6036169;23;20300;-79
2022/01/05 13:44:59;;;;;;;;;;;10.50;59.40;;;;;;6037240;23;20407;-80
2022/01/05 13:47:26;;;;;;;;;;;10.90;60.50;;;;;;6036188;23;19977;-79
2022/01/05 13:50:05;;;;;;;;;;;11.00;59.10;;;;;;6035960;23;19933;-79
2022/01/05 13:52:32;;;;;;;;;;;11.00;69.10;;;;;;6036356;23;19926;-82
2022/01/05 13:54:59;;;;;;;;;;;10.90;68.30;;;;;;6038294;23;20339;-81
2022/01/05 13:57:25;;;;;;;;;;;11.30;39.20;;;;;;6036135;23;19922;-81
2022/01/05 13:59:57;;;;;;;;;;;11.90;38.40;;;;;;6037323;23;19922;-79
2022/01/05 14:02:25;;;;;;;;;;;12.20;33.30;;;;;;6035351;23;20021;-80
2022/01/05 14:04:53;;;;;;;;;;;12.60;31.90;;;;;;6037157;23;19922;-80
2022/01/05 14:07:21;;;;;;;;;;;12.80;31.00;;;;;;6036062;23;19977;-81
2022/01/05 14:10:08;;;;;;;;;;;13.00;29.90;;;;;;6036615;23;19922;-81
2022/01/05 14:12:38;;;;;;;;;;;13.00;30.00;;;;;;6036754;23;19926;-79
2022/01/05 14:15:06;;;;;;;;;;;13.10;29.70;;;;;;6037173;23;20304;-79
2022/01/05 14:17:32;;;;;;;;;;;13.10;29.30;;;;;;6038269;23;19929;-81
2022/01/05 14:20:23;;;;;;;;;;;13.10;28.90;;;;;;6039007;23;19922;-81
2022/01/05 14:22:58;;;;;;;;;;;13.20;28.60;;;;;;6021099;23;19929;-79
2022/01/05 14:25:35;;;;;;;;;;;13.20;27.10;;;;;;6037491;23;19950;-81
2022/01/05 14:28:09;;;;;;;;;;;13.20;27.90;;;;;;6039629;23;19922;-82
2022/01/05 14:30:36;;;;;;;;;;;13.10;26.90;;;;;;6038443;23;20411;-80
2022/01/05 14:33:03;;;;;;;;;;;13.20;26.00;;;;;;6038649;23;19929;-78
2022/01/05 14:35:29;;;;;;;;;;;13.10;25.80;;;;;;6037682;23;19930;-79
2022/01/05 14:38:04;;;;;;;;;;;13.20;25.40;;;;;;6039413;23;19978;-80
2022/01/05 14:40:32;;;;;;;;;;;13.10;25.70;;;;;;6038702;23;19973;-81
2022/01/05 14:43:00;;;;;;;;;;;13.10;24.40;;;;;;6039044;23;19974;-77
2022/01/05 14:45:27;;;;;;;;;;;13.20;25.50;;;;;;6040329;23;20340;-80